sensor_id;sensor_type;location;lat;lon;timestamp;pressure;altitude;pressure_sealevel;temperature;humidity
11041;BME280;5573;49.592;8.662;2023-07-29T00:00:08;99419.78;;;18.41;93.88
11041;BME280;5573;49.592;8.662;2023-07-29T00:02:40;99413.56;;;18.51;92.79
11041;BME280;5573;49.592;8.662;2023-07-29T00:05:08;99408.41;;;18.70;91.08
11041;BME280;5573;49.592;8.662;2023-07-29T00:07:36;99408.97;;;18.41;93.08
11041;BME280;5573;49.592;8.662;2023-07-29T00:10:07;99408.16;;;18.41;93.23
11041;BME280;5573;49.592;8.662;2023-07-29T00:12:35;99404.41;;;18.57;92.82
11041;BME280;5573;49.592;8.662;2023-07-29T00:15:03;99396.03;;;18.54;92.30
11041;BME280;5573;49.592;8.662;2023-07-29T00:17:31;99389.56;;;18.45;92.90
11041;BME280;5573;49.592;8.662;2023-07-29T00:19:59;99384.72;;;18.36;93.29
11041;BME280;5573;49.592;8.662;2023-07-29T00:22:27;99378.75;;;18.39;92.91
11041;BME280;5573;49.592;8.662;2023-07-29T00:24:55;99384.72;;;18.26;94.30
11041;BME280;5573;49.592;8.662;2023-07-29T00:27:25;99396.31;;;18.12;95.10
11041;BME280;5573;49.592;8.662;2023-07-29T00:29:54;99358.84;;;18.00;94.69
11041;BME280;5573;49.592;8.662;2023-07-29T00:32:22;99381.22;;;18.31;93.56
11041;BME280;5573;49.592;8.662;2023-07-29T00:34:49;99376.91;;;18.20;94.91
11041;BME280;5573;49.592;8.662;2023-07-29T00:37:17;99375.56;;;18.07;95.21
11041;BME280;5573;49.592;8.662;2023-07-29T00:39:45;99380.41;;;17.95;96.10
11041;BME280;5573;49.592;8.662;2023-07-29T00:42:13;99375.56;;;17.97;96.14
11041;BME280;5573;49.592;8.662;2023-07-29T00:44:42;99372.06;;;18.07;95.46
11041;BME280;5573;49.592;8.662;2023-07-29T00:47:11;99367.75;;;18.01;95.94
11041;BME280;5573;49.592;8.662;2023-07-29T00:49:41;99356.97;;;17.96;96.45
11041;BME280;5573;49.592;8.662;2023-07-29T00:52:10;99352.09;;;17.87;96.80
11041;BME280;5573;49.592;8.662;2023-07-29T00:54:39;99357.50;;;17.77;97.33
11041;BME280;5573;49.592;8.662;2023-07-29T00:57:08;99352.38;;;17.71;97.72
11041;BME280;5573;49.592;8.662;2023-07-29T00:59:37;99350.22;;;17.73;97.78
11041;BME280;5573;49.592;8.662;2023-07-29T01:02:06;99326.53;;;17.70;96.67
11041;BME280;5573;49.592;8.662;2023-07-29T01:04:34;99342.97;;;17.88;95.82
11041;BME280;5573;49.592;8.662;2023-07-29T01:07:07;99344.56;;;17.79;96.09
11041;BME280;5573;49.592;8.662;2023-07-29T01:09:43;99345.91;;;17.67;96.79
11041;BME280;5573;49.592;8.662;2023-07-29T01:12:20;99347.53;;;17.73;96.18
11041;BME280;5573;49.592;8.662;2023-07-29T01:14:55;99348.59;;;17.62;96.86
11041;BME280;5573;49.592;8.662;2023-07-29T01:17:32;99327.25;;;17.40;97.74
11041;BME280;5573;49.592;8.662;2023-07-29T01:20:04;99344.78;;;17.53;97.89
11041;BME280;5573;49.592;8.662;2023-07-29T01:22:35;99343.22;;;17.92;94.89
11041;BME280;5573;49.592;8.662;2023-07-29T01:25:06;99333.53;;;17.81;95.64
11041;BME280;5573;49.592;8.662;2023-07-29T01:27:33;99340.81;;;17.75;96.55
11041;BME280;5573;49.592;8.662;2023-07-29T01:30:02;99338.63;;;17.72;96.92
11041;BME280;5573;49.592;8.662;2023-07-29T01:32:36;99337.31;;;17.75;97.06
11041;BME280;5573;49.592;8.662;2023-07-29T01:35:13;99327.31;;;17.65;97.94
11041;BME280;5573;49.592;8.662;2023-07-29T01:37:44;99319.25;;;17.60;97.54
11041;BME280;5573;49.592;8.662;2023-07-29T01:40:18;99332.44;;;17.92;95.91
11041;BME280;5573;49.592;8.662;2023-07-29T01:42:46;99335.41;;;17.85;96.21
11041;BME280;5573;49.592;8.662;2023-07-29T01:45:14;99338.09;;;17.90;95.91
11041;BME280;5573;49.592;8.662;2023-07-29T01:47:42;99335.94;;;17.87;95.82
11041;BME280;5573;49.592;8.662;2023-07-29T01:50:10;99327.59;;;17.99;94.98
11041;BME280;5573;49.592;8.662;2023-07-29T01:52:38;99324.91;;;17.84;95.84
11041;BME280;5573;49.592;8.662;2023-07-29T01:55:07;99331.91;;;17.75;96.45
11041;BME280;5573;49.592;8.662;2023-07-29T01:57:36;99336.22;;;17.71;97.02
11041;BME280;5573;49.592;8.662;2023-07-29T02:00:05;99327.88;;;17.77;96.59
11041;BME280;5573;49.592;8.662;2023-07-29T02:02:39;99332.19;;;17.78;96.41
11041;BME280;5573;49.592;8.662;2023-07-29T02:05:13;99325.44;;;17.71;96.98
11041;BME280;5573;49.592;8.662;2023-07-29T02:07:41;99316.81;;;17.69;97.71
11041;BME280;5573;49.592;8.662;2023-07-29T02:10:09;99315.47;;;17.66;98.12
11041;BME280;5573;49.592;8.662;2023-07-29T02:12:39;99309.28;;;17.71;98.22
11041;BME280;5573;49.592;8.662;2023-07-29T02:15:08;99313.31;;;17.68;97.38
11041;BME280;5573;49.592;8.662;2023-07-29T02:17:36;99307.66;;;17.70;96.92
11041;BME280;5573;49.592;8.662;2023-07-29T02:20:05;99302.00;;;17.66;97.85
11041;BME280;5573;49.592;8.662;2023-07-29T02:22:33;99304.69;;;17.61;98.13
11041;BME280;5573;49.592;8.662;2023-07-29T02:25:01;99306.03;;;17.69;97.90
11041;BME280;5573;49.592;8.662;2023-07-29T02:27:29;99302.81;;;17.62;98.08
11041;BME280;5573;49.592;8.662;2023-07-29T02:29:58;99298.22;;;17.77;95.94
11041;BME280;5573;49.592;8.662;2023-07-29T02:32:26;99303.88;;;17.76;96.33
11041;BME280;5573;49.592;8.662;2023-07-29T02:34:54;99302.00;;;17.61;97.34
11041;BME280;5573;49.592;8.662;2023-07-29T02:37:22;99299.56;;;17.65;97.34
11041;BME280;5573;49.592;8.662;2023-07-29T02:39:51;99302.25;;;17.80;96.87
11041;BME280;5573;49.592;8.662;2023-07-29T02:42:18;99310.91;;;17.97;94.41
11041;BME280;5573;49.592;8.662;2023-07-29T02:44:47;99311.13;;;18.16;92.71
11041;BME280;5573;49.592;8.662;2023-07-29T02:47:16;99308.19;;;18.07;92.93
11041;BME280;5573;49.592;8.662;2023-07-29T02:49:44;99310.31;;;18.05;92.86
11041;BME280;5573;49.592;8.662;2023-07-29T02:52:12;99306.00;;;18.14;92.78
11041;BME280;5573;49.592;8.662;2023-07-29T02:54:40;99305.75;;;18.16;92.87
11041;BME280;5573;49.592;8.662;2023-07-29T02:57:08;99307.09;;;18.13;93.06
11041;BME280;5573;49.592;8.662;2023-07-29T02:59:36;99303.88;;;18.16;93.28
11041;BME280;5573;49.592;8.662;2023-07-29T03:02:04;99308.16;;;18.22;92.38
11041;BME280;5573;49.592;8.662;2023-07-29T03:04:33;99312.44;;;18.28;91.67
11041;BME280;5573;49.592;8.662;2023-07-29T03:07:01;99298.41;;;18.31;91.51
11041;BME280;5573;49.592;8.662;2023-07-29T03:09:29;99294.09;;;18.35;91.22
11041;BME280;5573;49.592;8.662;2023-07-29T03:11:57;99295.97;;;18.35;91.92
11041;BME280;5573;49.592;8.662;2023-07-29T03:14:25;99285.72;;;18.42;91.14
11041;BME280;5573;49.592;8.662;2023-07-29T03:16:54;99285.22;;;18.25;92.25
11041;BME280;5573;49.592;8.662;2023-07-29T03:19:22;99273.09;;;18.22;92.30
11041;BME280;5573;49.592;8.662;2023-07-29T03:21:51;99272.63;;;18.00;93.33
11041;BME280;5573;49.592;8.662;2023-07-29T03:24:19;99269.34;;;18.13;91.92
11041;BME280;5573;49.592;8.662;2023-07-29T03:26:47;99268.81;;;18.16;91.04
11041;BME280;5573;49.592;8.662;2023-07-29T03:29:15;99263.72;;;18.05;92.98
11041;BME280;5573;49.592;8.662;2023-07-29T03:31:42;99263.44;;;18.16;91.87
11041;BME280;5573;49.592;8.662;2023-07-29T03:34:10;99265.88;;;18.03;93.04
11041;BME280;5573;49.592;8.662;2023-07-29T03:36:42;99269.09;;;18.00;93.05
11041;BME280;5573;49.592;8.662;2023-07-29T03:39:14;99267.78;;;17.97;92.71
11041;BME280;5573;49.592;8.662;2023-07-29T03:41:41;99238.13;;;17.87;92.57
11041;BME280;5573;49.592;8.662;2023-07-29T03:44:09;99261.03;;;18.00;93.20
11041;BME280;5573;49.592;8.662;2023-07-29T03:46:37;99265.59;;;18.04;92.89
11041;BME280;5573;49.592;8.662;2023-07-29T03:49:07;99256.44;;;18.00;93.20
11041;BME280;5573;49.592;8.662;2023-07-29T03:51:35;99245.63;;;18.15;91.66
11041;BME280;5573;49.592;8.662;2023-07-29T03:54:04;99239.16;;;18.16;91.77
11041;BME280;5573;49.592;8.662;2023-07-29T03:56:33;99247.78;;;18.13;92.18
11041;BME280;5573;49.592;8.662;2023-07-29T03:59:04;99242.88;;;18.30;89.87
11041;BME280;5573;49.592;8.662;2023-07-29T04:01:32;99245.59;;;18.25;90.73
11041;BME280;5573;49.592;8.662;2023-07-29T04:04:00;99255.84;;;18.23;90.67
11041;BME280;5573;49.592;8.662;2023-07-29T04:06:28;99258.28;;;18.20;92.23
11041;BME280;5573;49.592;8.662;2023-07-29T04:08:56;99259.66;;;18.12;91.98
11041;BME280;5573;49.592;8.662;2023-07-29T04:11:24;99254.78;;;18.19;90.65
11041;BME280;5573;49.592;8.662;2023-07-29T04:13:54;99265.06;;;18.12;92.08
11041;BME280;5573;49.592;8.662;2023-07-29T04:16:22;99265.03;;;18.17;91.51
11041;BME280;5573;49.592;8.662;2023-07-29T04:18:50;99272.56;;;18.30;90.29
11041;BME280;5573;49.592;8.662;2023-07-29T04:21:18;99271.47;;;18.21;91.33
11041;BME280;5573;49.592;8.662;2023-07-29T04:23:46;99260.69;;;18.21;91.39
11041;BME280;5573;49.592;8.662;2023-07-29T04:26:14;99258.56;;;18.23;92.01
11041;BME280;5573;49.592;8.662;2023-07-29T04:28:42;99265.28;;;18.21;92.50
11041;BME280;5573;49.592;8.662;2023-07-29T04:31:11;99267.16;;;18.20;91.25
11041;BME280;5573;49.592;8.662;2023-07-29T04:33:39;99263.94;;;18.23;91.80
11041;BME280;5573;49.592;8.662;2023-07-29T04:36:07;99259.06;;;18.20;91.58
11041;BME280;5573;49.592;8.662;2023-07-29T04:38:37;99241.88;;;18.06;91.50
11041;BME280;5573;49.592;8.662;2023-07-29T04:41:05;99264.75;;;18.14;93.31
11041;BME280;5573;49.592;8.662;2023-07-29T04:43:34;99264.47;;;18.20;91.84
11041;BME280;5573;49.592;8.662;2023-07-29T04:46:01;99269.31;;;18.28;91.31
11041;BME280;5573;49.592;8.662;2023-07-29T04:48:31;99263.09;;;18.28;91.57
11041;BME280;5573;49.592;8.662;2023-07-29T04:50:59;99259.06;;;18.20;92.50
11041;BME280;5573;49.592;8.662;2023-07-29T04:53:26;99263.66;;;18.25;91.96
11041;BME280;5573;49.592;8.662;2023-07-29T04:55:54;99264.72;;;18.34;91.41
11041;BME280;5573;49.592;8.662;2023-07-29T04:58:22;99267.88;;;18.46;90.47
11041;BME280;5573;49.592;8.662;2023-07-29T05:00:50;99266.56;;;18.54;90.41
11041;BME280;5573;49.592;8.662;2023-07-29T05:03:18;99282.75;;;18.43;91.01
11041;BME280;5573;49.592;8.662;2023-07-29T05:05:47;99291.63;;;18.54;90.10
11041;BME280;5573;49.592;8.662;2023-07-29T05:08:18;99284.88;;;18.62;89.50
11041;BME280;5573;49.592;8.662;2023-07-29T05:10:48;99296.78;;;18.56;90.38
11041;BME280;5573;49.592;8.662;2023-07-29T05:13:16;99303.78;;;18.52;90.55
11041;BME280;5573;49.592;8.662;2023-07-29T05:15:45;99304.03;;;18.50;90.11
11041;BME280;5573;49.592;8.662;2023-07-29T05:18:12;99300.03;;;18.37;91.09
11041;BME280;5573;49.592;8.662;2023-07-29T05:20:41;99297.03;;;18.39;90.56
11041;BME280;5573;49.592;8.662;2023-07-29T05:23:10;99287.63;;;18.36;90.93
11041;BME280;5573;49.592;8.662;2023-07-29T05:25:38;99293.56;;;18.38;91.06
11041;BME280;5573;49.592;8.662;2023-07-29T05:28:06;99289.81;;;18.29;91.45
11041;BME280;5573;49.592;8.662;2023-07-29T05:30:33;99288.69;;;18.35;91.52
11041;BME280;5573;49.592;8.662;2023-07-29T05:33:05;99283.88;;;18.27;92.24
11041;BME280;5573;49.592;8.662;2023-07-29T05:35:34;99289.53;;;18.26;92.57
11041;BME280;5573;49.592;8.662;2023-07-29T05:38:02;99300.06;;;18.27;92.29
11041;BME280;5573;49.592;8.662;2023-07-29T05:40:34;99307.06;;;18.28;92.62
11041;BME280;5573;49.592;8.662;2023-07-29T05:43:01;99313.22;;;18.39;91.88
11041;BME280;5573;49.592;8.662;2023-07-29T05:45:29;99318.91;;;18.37;92.30
11041;BME280;5573;49.592;8.662;2023-07-29T05:47:58;99308.13;;;18.37;92.90
11041;BME280;5573;49.592;8.662;2023-07-29T05:50:26;99304.91;;;18.25;93.59
11041;BME280;5573;49.592;8.662;2023-07-29T05:52:53;99314.34;;;18.28;94.15
11041;BME280;5573;49.592;8.662;2023-07-29T05:55:22;99308.16;;;18.22;94.36
11041;BME280;5573;49.592;8.662;2023-07-29T05:57:51;99307.34;;;18.22;95.06
11041;BME280;5573;49.592;8.662;2023-07-29T06:00:19;99299.00;;;18.23;94.62
11041;BME280;5573;49.592;8.662;2023-07-29T06:02:47;99305.44;;;18.32;94.36
11041;BME280;5573;49.592;8.662;2023-07-29T06:05:20;99309.19;;;18.36;94.05
11041;BME280;5573;49.592;8.662;2023-07-29T06:07:48;99302.75;;;18.27;94.98
11041;BME280;5573;49.592;8.662;2023-07-29T06:10:16;99310.03;;;18.22;95.18
11041;BME280;5573;49.592;8.662;2023-07-29T06:12:45;99298.97;;;18.38;94.66
11041;BME280;5573;49.592;8.662;2023-07-29T06:15:15;99283.59;;;18.34;94.79
11041;BME280;5573;49.592;8.662;2023-07-29T06:17:43;99302.72;;;18.53;94.24
11041;BME280;5573;49.592;8.662;2023-07-29T06:20:11;99295.41;;;18.48;94.14
11041;BME280;5573;49.592;8.662;2023-07-29T06:22:39;99289.69;;;18.70;93.38
11041;BME280;5573;49.592;8.662;2023-07-29T06:25:07;99275.00;;;18.91;92.33
11041;BME280;5573;49.592;8.662;2023-07-29T06:27:35;99296.03;;;18.99;91.68
11041;BME280;5573;49.592;8.662;2023-07-29T06:30:04;99299.78;;;19.03;91.86
11041;BME280;5573;49.592;8.662;2023-07-29T06:32:33;99296.59;;;18.96;92.37
11041;BME280;5573;49.592;8.662;2023-07-29T06:35:02;99288.72;;;19.05;91.55
11041;BME280;5573;49.592;8.662;2023-07-29T06:37:29;99294.06;;;19.10;91.48
11041;BME280;5573;49.592;8.662;2023-07-29T06:39:57;99292.72;;;19.12;90.90
11041;BME280;5573;49.592;8.662;2023-07-29T06:42:25;99290.03;;;19.12;91.15
11041;BME280;5573;49.592;8.662;2023-07-29T06:44:53;99295.34;;;19.27;91.65
11041;BME280;5573;49.592;8.662;2023-07-29T06:47:21;99291.25;;;19.35;90.12
11041;BME280;5573;49.592;8.662;2023-07-29T06:49:50;99293.00;;;19.11;91.80
11041;BME280;5573;49.592;8.662;2023-07-29T06:52:18;99287.09;;;19.09;91.47
11041;BME280;5573;49.592;8.662;2023-07-29T06:54:45;99290.22;;;19.26;90.38
11041;BME280;5573;49.592;8.662;2023-07-29T06:57:13;99295.59;;;19.31;90.41
11041;BME280;5573;49.592;8.662;2023-07-29T06:59:41;99293.06;;;19.50;88.86
11041;BME280;5573;49.592;8.662;2023-07-29T07:02:09;99297.69;;;19.39;90.19
11041;BME280;5573;49.592;8.662;2023-07-29T07:04:36;99296.19;;;19.62;89.48
11041;BME280;5573;49.592;8.662;2023-07-29T07:07:06;99305.19;;;19.86;87.91
11041;BME280;5573;49.592;8.662;2023-07-29T07:09:33;99306.72;;;19.97;87.52
11041;BME280;5573;49.592;8.662;2023-07-29T07:12:01;99318.50;;;20.06;87.20
11041;BME280;5573;49.592;8.662;2023-07-29T07:14:29;99324.06;;;20.49;85.77
11041;BME280;5573;49.592;8.662;2023-07-29T07:16:57;99320.94;;;20.37;85.14
11041;BME280;5573;49.592;8.662;2023-07-29T07:19:25;99317.81;;;20.53;85.25
11041;BME280;5573;49.592;8.662;2023-07-29T07:21:53;99325.63;;;20.55;84.66
11041;BME280;5573;49.592;8.662;2023-07-29T07:24:22;99330.13;;;20.64;84.51
11041;BME280;5573;49.592;8.662;2023-07-29T07:26:50;99327.41;;;20.41;86.18
11041;BME280;5573;49.592;8.662;2023-07-29T07:29:17;99321.38;;;20.49;84.91
11041;BME280;5573;49.592;8.662;2023-07-29T07:31:50;99329.88;;;20.37;86.08
11041;BME280;5573;49.592;8.662;2023-07-29T07:34:19;99328.16;;;20.46;85.74
11041;BME280;5573;49.592;8.662;2023-07-29T07:36:46;99324.53;;;20.32;86.60
11041;BME280;5573;49.592;8.662;2023-07-29T07:39:15;99338.69;;;20.19;86.52
11041;BME280;5573;49.592;8.662;2023-07-29T07:41:44;99336.50;;;20.21;86.89
11041;BME280;5573;49.592;8.662;2023-07-29T07:44:13;99298.69;;;20.16;86.29
11041;BME280;5573;49.592;8.662;2023-07-29T07:46:44;99338.44;;;20.15;86.51
11041;BME280;5573;49.592;8.662;2023-07-29T07:49:12;99313.31;;;19.81;88.13
11041;BME280;5573;49.592;8.662;2023-07-29T07:51:40;99329.47;;;19.91;88.61
11041;BME280;5573;49.592;8.662;2023-07-29T07:54:08;99328.78;;;19.75;89.35
11041;BME280;5573;49.592;8.662;2023-07-29T07:56:35;99325.88;;;19.67;90.47
11041;BME280;5573;49.592;8.662;2023-07-29T07:59:05;99336.72;;;19.62;91.16
11041;BME280;5573;49.592;8.662;2023-07-29T08:01:34;99334.09;;;19.52;91.92
11041;BME280;5573;49.592;8.662;2023-07-29T08:04:01;99344.66;;;19.43;92.25
11041;BME280;5573;49.592;8.662;2023-07-29T08:06:29;99346.31;;;19.39;92.62
11041;BME280;5573;49.592;8.662;2023-07-29T08:08:57;99335.81;;;19.32;93.21
11041;BME280;5573;49.592;8.662;2023-07-29T08:11:25;99329.88;;;19.30;93.85
11041;BME280;5573;49.592;8.662;2023-07-29T08:13:53;99321.81;;;19.25;93.97
11041;BME280;5573;49.592;8.662;2023-07-29T08:16:22;99324.25;;;19.27;94.38
11041;BME280;5573;49.592;8.662;2023-07-29T08:18:50;99325.81;;;19.33;94.96
11041;BME280;5573;49.592;8.662;2023-07-29T08:21:18;99333.06;;;19.37;94.91
11041;BME280;5573;49.592;8.662;2023-07-29T08:23:46;99338.00;;;19.30;95.91
11041;BME280;5573;49.592;8.662;2023-07-29T08:26:14;99335.50;;;19.44;97.15
11041;BME280;5573;49.592;8.662;2023-07-29T08:28:41;99323.25;;;19.57;96.35
11041;BME280;5573;49.592;8.662;2023-07-29T08:31:09;99320.31;;;19.53;95.73
11041;BME280;5573;49.592;8.662;2023-07-29T08:33:39;99323.38;;;19.42;95.94
11041;BME280;5573;49.592;8.662;2023-07-29T08:36:07;99326.88;;;19.42;95.50
11041;BME280;5573;49.592;8.662;2023-07-29T08:38:34;99325.81;;;19.33;95.46
11041;BME280;5573;49.592;8.662;2023-07-29T08:41:07;99336.53;;;19.53;94.83
11041;BME280;5573;49.592;8.662;2023-07-29T08:43:39;99337.63;;;19.86;95.01
11041;BME280;5573;49.592;8.662;2023-07-29T08:46:11;99342.00;;;20.11;93.86
11041;BME280;5573;49.592;8.662;2023-07-29T08:48:41;99343.84;;;20.15;94.14
11041;BME280;5573;49.592;8.662;2023-07-29T08:51:11;99337.13;;;20.42;91.99
11041;BME280;5573;49.592;8.662;2023-07-29T08:53:39;99337.75;;;20.33;91.18
11041;BME280;5573;49.592;8.662;2023-07-29T08:56:08;99339.47;;;20.96;85.43
11041;BME280;5573;49.592;8.662;2023-07-29T08:58:36;99340.94;;;21.49;87.88
11041;BME280;5573;49.592;8.662;2023-07-29T09:01:04;99354.69;;;21.15;83.99
11041;BME280;5573;49.592;8.662;2023-07-29T09:03:32;99356.44;;;21.06;85.79
11041;BME280;5573;49.592;8.662;2023-07-29T09:06:02;99356.69;;;21.05;85.06
11041;BME280;5573;49.592;8.662;2023-07-29T09:08:30;99350.38;;;21.14;84.86
11041;BME280;5573;49.592;8.662;2023-07-29T09:10:58;99372.72;;;21.01;86.29
11041;BME280;5573;49.592;8.662;2023-07-29T09:13:26;99362.97;;;21.00;86.46
11041;BME280;5573;49.592;8.662;2023-07-29T09:15:56;99362.56;;;21.36;85.09
11041;BME280;5573;49.592;8.662;2023-07-29T09:18:26;99363.88;;;21.75;85.18
11041;BME280;5573;49.592;8.662;2023-07-29T09:20:58;99356.81;;;21.93;84.61
11041;BME280;5573;49.592;8.662;2023-07-29T09:23:28;99363.00;;;21.80;85.20
11041;BME280;5573;49.592;8.662;2023-07-29T09:26:02;99353.09;;;21.70;84.04
11041;BME280;5573;49.592;8.662;2023-07-29T09:28:33;99365.38;;;21.82;86.64
11041;BME280;5573;49.592;8.662;2023-07-29T09:31:02;99362.47;;;21.78;83.07
11041;BME280;5573;49.592;8.662;2023-07-29T09:33:33;99365.56;;;21.34;84.50
11041;BME280;5573;49.592;8.662;2023-07-29T09:36:08;99355.28;;;21.12;85.80
11041;BME280;5573;49.592;8.662;2023-07-29T09:38:37;99363.97;;;21.09;87.57
11041;BME280;5573;49.592;8.662;2023-07-29T09:41:06;99344.09;;;21.19;86.20
11041;BME280;5573;49.592;8.662;2023-07-29T09:43:34;99351.19;;;21.15;85.83
11041;BME280;5573;49.592;8.662;2023-07-29T09:46:03;99350.38;;;21.70;84.91
11041;BME280;5573;49.592;8.662;2023-07-29T09:48:33;99347.28;;;22.28;80.85
11041;BME280;5573;49.592;8.662;2023-07-29T09:51:09;99339.69;;;22.57;79.67
11041;BME280;5573;49.592;8.662;2023-07-29T09:53:42;99337.78;;;22.58;79.77
11041;BME280;5573;49.592;8.662;2023-07-29T09:56:13;99319.59;;;22.58;78.61
11041;BME280;5573;49.592;8.662;2023-07-29T09:58:42;99333.25;;;22.67;78.79
11041;BME280;5573;49.592;8.662;2023-07-29T10:01:12;99321.72;;;22.75;78.73
11041;BME280;5573;49.592;8.662;2023-07-29T10:03:42;99323.19;;;23.08;76.28
11041;BME280;5573;49.592;8.662;2023-07-29T10:06:10;99329.09;;;23.60;71.23
11041;BME280;5573;49.592;8.662;2023-07-29T10:08:40;99325.56;;;23.24;72.33
11041;BME280;5573;49.592;8.662;2023-07-29T10:11:11;99321.78;;;22.97;76.16
11041;BME280;5573;49.592;8.662;2023-07-29T10:13:39;99322.13;;;22.68;75.67
11041;BME280;5573;49.592;8.662;2023-07-29T10:16:08;99320.38;;;22.59;78.27
11041;BME280;5573;49.592;8.662;2023-07-29T10:18:36;99326.94;;;22.85;77.01
11041;BME280;5573;49.592;8.662;2023-07-29T10:21:06;99332.34;;;23.12;77.89
11041;BME280;5573;49.592;8.662;2023-07-29T10:23:38;99327.94;;;23.39;76.10
11041;BME280;5573;49.592;8.662;2023-07-29T10:26:10;99336.56;;;23.18;73.84
11041;BME280;5573;49.592;8.662;2023-07-29T10:28:40;99337.06;;;22.39;74.67
11041;BME280;5573;49.592;8.662;2023-07-29T10:31:08;99330.81;;;22.24;76.84
11041;BME280;5573;49.592;8.662;2023-07-29T10:33:37;99328.16;;;22.19;79.51
11041;BME280;5573;49.592;8.662;2023-07-29T10:36:06;99320.97;;;22.56;77.40
11041;BME280;5573;49.592;8.662;2023-07-29T10:38:35;99328.94;;;22.66;79.19
11041;BME280;5573;49.592;8.662;2023-07-29T10:41:03;99319.72;;;23.44;74.44
11041;BME280;5573;49.592;8.662;2023-07-29T10:43:33;99330.88;;;24.23;72.20
11041;BME280;5573;49.592;8.662;2023-07-29T10:46:15;99331.28;;;24.47;70.35
11041;BME280;5573;49.592;8.662;2023-07-29T10:48:51;99324.91;;;24.91;67.49
11041;BME280;5573;49.592;8.662;2023-07-29T10:51:27;99322.88;;;25.22;64.90
11041;BME280;5573;49.592;8.662;2023-07-29T10:53:59;99312.41;;;24.98;66.36
11041;BME280;5573;49.592;8.662;2023-07-29T10:56:29;99317.38;;;24.48;67.05
11041;BME280;5573;49.592;8.662;2023-07-29T10:59:31;99306.44;;;23.87;68.50
11041;BME280;5573;49.592;8.662;2023-07-29T11:02:01;99301.53;;;24.20;68.10
11041;BME280;5573;49.592;8.662;2023-07-29T11:04:30;99277.22;;;23.70;70.95
11041;BME280;5573;49.592;8.662;2023-07-29T11:10:03;99293.38;;;23.17;71.54
11041;BME280;5573;49.592;8.662;2023-07-29T11:12:39;99290.19;;;23.01;73.63
11041;BME280;5573;49.592;8.662;2023-07-29T11:15:19;99293.56;;;23.20;72.55
11041;BME280;5573;49.592;8.662;2023-07-29T11:17:49;99288.28;;;23.38;71.97
11041;BME280;5573;49.592;8.662;2023-07-29T11:20:19;99295.19;;;23.80;72.16
11041;BME280;5573;49.592;8.662;2023-07-29T11:22:48;99289.81;;;23.44;70.46
11041;BME280;5573;49.592;8.662;2023-07-29T11:25:18;99276.88;;;23.49;71.16
11041;BME280;5573;49.592;8.662;2023-07-29T11:27:46;99273.19;;;23.45;70.58
11041;BME280;5573;49.592;8.662;2023-07-29T11:30:15;99277.84;;;23.31;72.06
11041;BME280;5573;49.592;8.662;2023-07-29T11:32:45;99279.13;;;22.98;71.81
11041;BME280;5573;49.592;8.662;2023-07-29T11:35:15;99286.81;;;22.96;70.51
11041;BME280;5573;49.592;8.662;2023-07-29T11:37:45;99288.91;;;22.58;71.33
11041;BME280;5573;49.592;8.662;2023-07-29T11:40:14;99288.38;;;22.56;72.38
11041;BME280;5573;49.592;8.662;2023-07-29T11:42:43;99284.94;;;23.05;69.41
11041;BME280;5573;49.592;8.662;2023-07-29T11:45:12;99279.97;;;23.79;70.41
11041;BME280;5573;49.592;8.662;2023-07-29T11:47:45;99275.75;;;24.56;66.69
11041;BME280;5573;49.592;8.662;2023-07-29T11:50:14;99279.06;;;24.93;65.65
11041;BME280;5573;49.592;8.662;2023-07-29T11:52:44;99279.75;;;25.16;62.39
11041;BME280;5573;49.592;8.662;2023-07-29T11:55:15;99283.88;;;24.96;60.51
11041;BME280;5573;49.592;8.662;2023-07-29T11:57:43;99261.31;;;25.30;58.75
11041;BME280;5573;49.592;8.662;2023-07-29T12:00:11;99272.19;;;25.47;58.12
11041;BME280;5573;49.592;8.662;2023-07-29T12:02:45;99264.66;;;25.87;58.62
11041;BME280;5573;49.592;8.662;2023-07-29T12:05:14;99259.06;;;25.40;54.67
11041;BME280;5573;49.592;8.662;2023-07-29T12:07:44;99263.53;;;25.79;54.65
11041;BME280;5573;49.592;8.662;2023-07-29T12:10:12;99279.91;;;25.45;56.38
11041;BME280;5573;49.592;8.662;2023-07-29T12:12:44;99267.47;;;24.70;57.73
11041;BME280;5573;49.592;8.662;2023-07-29T12:15:12;99277.47;;;24.44;59.71
11041;BME280;5573;49.592;8.662;2023-07-29T12:17:41;99280.09;;;24.66;59.27
11041;BME280;5573;49.592;8.662;2023-07-29T12:20:11;99282.53;;;24.68;59.07
11041;BME280;5573;49.592;8.662;2023-07-29T12:22:39;99277.16;;;24.54;58.71
11041;BME280;5573;49.592;8.662;2023-07-29T12:25:08;99261.34;;;24.56;57.39
11041;BME280;5573;49.592;8.662;2023-07-29T12:27:36;99263.94;;;24.70;57.04
11041;BME280;5573;49.592;8.662;2023-07-29T12:30:05;99279.06;;;24.84;56.54
11041;BME280;5573;49.592;8.662;2023-07-29T12:32:33;99277.63;;;24.95;55.88
11041;BME280;5573;49.592;8.662;2023-07-29T12:35:11;99266.41;;;24.88;54.15
11041;BME280;5573;49.592;8.662;2023-07-29T12:37:39;99263.63;;;24.80;53.36
11041;BME280;5573;49.592;8.662;2023-07-29T12:40:20;99270.22;;;24.79;52.43
11041;BME280;5573;49.592;8.662;2023-07-29T12:42:49;99269.84;;;24.63;55.09
11041;BME280;5573;49.592;8.662;2023-07-29T12:45:17;99274.66;;;24.66;53.84
11041;BME280;5573;49.592;8.662;2023-07-29T12:47:45;99264.50;;;25.32;51.13
11041;BME280;5573;49.592;8.662;2023-07-29T12:50:15;99267.91;;;25.63;51.50
11041;BME280;5573;49.592;8.662;2023-07-29T12:52:43;99267.72;;;25.17;50.88
11041;BME280;5573;49.592;8.662;2023-07-29T12:55:10;99281.63;;;24.98;48.70
11041;BME280;5573;49.592;8.662;2023-07-29T12:57:41;99275.47;;;24.75;50.81
11041;BME280;5573;49.592;8.662;2023-07-29T13:00:10;99278.44;;;24.96;50.27
11041;BME280;5573;49.592;8.662;2023-07-29T13:02:38;99261.63;;;25.54;51.10
11041;BME280;5573;49.592;8.662;2023-07-29T13:05:09;99266.97;;;26.14;49.62
11041;BME280;5573;49.592;8.662;2023-07-29T13:07:39;99261.59;;;25.80;48.60
11041;BME280;5573;49.592;8.662;2023-07-29T13:10:08;99273.41;;;26.18;47.29
11041;BME280;5573;49.592;8.662;2023-07-29T13:12:36;99269.09;;;26.09;48.07
11041;BME280;5573;49.592;8.662;2023-07-29T13:15:05;99264.25;;;26.05;47.32
11041;BME280;5573;49.592;8.662;2023-07-29T13:17:33;99255.13;;;26.48;46.21
11041;BME280;5573;49.592;8.662;2023-07-29T13:20:02;99261.44;;;26.69;47.14
11041;BME280;5573;49.592;8.662;2023-07-29T13:22:30;99263.25;;;26.94;45.19